Farmington, Michigan
Current Conditions -  °F | °C
As of 10:57 PM on Sunday 23 Nov 2014 (Local Time) from KVLL Reporting Station
Moderate Rain Moderate Rain  
Wind Chill: 50°   Ceiling: 300
Heat Index: 50°   Visibility: 4mi
Dew Point: 48°   Wind: 9mph
Humidity: 94%   Direction: 100°E
Pressure: 29.33"   Gusts: NA
Location:  42.46°N, 83.38°W
Report Text: KVLL 240357Z AUTO 10008KT 4SM RA OVC003 10/09 A2933 RMK AO2
Loading
Personal Weather Stations






























Interactive Weather Map New forecast layout! Learn more

10-Day Weather Forecast

Advertisements
Track Severe Weather on mobile